D/T METAR WX W/DIR W/SPE G/SPE TEMP DEWP
8/12/19 00:20 EGKK 080020Z 22016KT 9999 BKN014 11/09 Q1006 SW (220°) 18.4mph 11°C 9°C
7/12/19 23:50 EGKK 072350Z 22018G31KT 180V250 9999 BKN014 11/09 Q1007 SW (220°) 20.7mph 35.7mph 11°C 9°C
7/12/19 23:20 EGKK 072320Z 21014KT 9999 BKN015 11/08 Q1007 SSW (210°) 16.1mph 11°C 8°C
7/12/19 22:50 EGKK 072250Z 21014G25KT 190V260 9999 BKN016 11/08 Q1008 SSW (210°) 16.1mph 28.8mph 11°C 8°C
7/12/19 22:20 EGKK 072220Z 22015G25KT 9999 BKN014 11/08 Q1009 SW (220°) 17.3mph 28.8mph 11°C 8°C
7/12/19 21:20 EGKK 072120Z 21012KT 9999 BKN018 11/08 Q1010 SSW (210°) 13.8mph 11°C 8°C
7/12/19 20:50 EGKK 072050Z 21011KT 9999 BKN020 11/08 Q1010 SSW (210°) 12.7mph 11°C 8°C
7/12/19 20:20 EGKK 072020Z 22009KT 9999 BKN020 10/08 Q1011 SW (220°) 10.4mph 10°C 8°C
7/12/19 19:50 EGKK 071950Z 21008KT 180V240 9999 BKN020 10/08 Q1011 SSW (210°) 9.2mph 10°C 8°C
7/12/19 19:20 EGKK 071920Z 22008KT 9999 BKN022 10/08 Q1012 SW (220°) 9.2mph 10°C 8°C
7/12/19 18:20 EGKK 071820Z 21007KT 9999 BKN023 10/07 Q1013 SSW (210°) 8.1mph 10°C 7°C
7/12/19 17:50 EGKK 071750Z 21007KT 170V240 9999 BKN024 10/06 Q1013 SSW (210°) 8.1mph 10°C 6°C
7/12/19 17:20 EGKK 071720Z 23009KT 9999 BKN024 10/06 Q1013 SW (230°) 10.4mph 10°C 6°C
7/12/19 16:50 EGKK 071650Z 22008KT 9999 BKN023 10/07 Q1013 SW (220°) 9.2mph 10°C 7°C
7/12/19 16:20 EGKK 071620Z 23008KT 9999 BKN025 10/07 Q1013 SW (230°) 9.2mph 10°C 7°C
7/12/19 15:50 EGKK 071550Z 23008KT 9999 BKN028 10/06 Q1013 SW (230°) 9.2mph 10°C 6°C
7/12/19 15:20 EGKK 071520Z 22007KT 9999 SCT027 10/06 Q1013 SW (220°) 8.1mph 10°C 6°C
7/12/19 14:50 EGKK 071450Z 22008KT 9999 SCT029 10/06 Q1013 SW (220°) 9.2mph 10°C 6°C
7/12/19 14:20 EGKK 071420Z 22007KT 9999 SCT030 11/06 Q1013 SW (220°) 8.1mph 11°C 6°C
7/12/19 13:50 EGKK 071350Z 22007KT 9999 FEW034 11/06 Q1014 SW (220°) 8.1mph 11°C 6°C
7/12/19 13:20 EGKK 071320Z 22007KT 180V240 9999 SCT034 10/06 Q1014 SW (220°) 8.1mph 10°C 6°C
7/12/19 12:50 EGKK 071250Z 23008KT 9999 BKN033 10/06 Q1014 SW (230°) 9.2mph 10°C 6°C
7/12/19 12:20 EGKK 071220Z 23007KT 9999 BKN032 10/07 Q1015 SW (230°) 8.1mph 10°C 7°C
7/12/19 11:50 EGKK 071150Z 23006KT 9999 OVC034 10/07 Q1015 SW (230°) 6.9mph 10°C 7°C
7/12/19 11:20 EGKK 071120Z 23005KT 9999 BKN034 09/07 Q1015 SW (230°) 5.8mph 9°C 7°C
7/12/19 10:50 EGKK 071050Z 23006KT 9999 BKN033 09/07 Q1015 SW (230°) 6.9mph 9°C 7°C
7/12/19 09:50 EGKK 070950Z 23006KT 9999 BKN034 08/07 Q1015 SW (230°) 6.9mph 8°C 7°C
7/12/19 09:20 EGKK 070920Z 23008KT 9999 BKN037 08/07 Q1015 SW (230°) 9.2mph 8°C 7°C
7/12/19 08:50 EGKK 070850Z 23009KT 9999 BKN034 08/06 Q1014 SW (230°) 10.4mph 8°C 6°C
7/12/19 08:20 EGKK 070820Z 22008KT 9999 SCT037 07/06 Q1014 SW (220°) 9.2mph 7°C 6°C
7/12/19 07:50 EGKK 070750Z 22007KT 9999 SCT037 07/06 Q1014 SW (220°) 8.1mph 7°C 6°C
7/12/19 06:50 EGKK 070650Z 23007KT 9999 BKN036 07/06 Q1014 SW (230°) 8.1mph 7°C 6°C
7/12/19 06:20 EGKK 070620Z 23008KT 9999 BKN036 07/06 Q1013 SW (230°) 9.2mph 7°C 6°C
7/12/19 05:50 EGKK 070550Z 23008KT 9999 BKN038 07/06 Q1013 SW (230°) 9.2mph 7°C 6°C
7/12/19 05:20 EGKK 070520Z 23008KT 9999 BKN039 08/06 Q1012 SW (230°) 9.2mph 8°C 6°C
7/12/19 04:50 EGKK 070450Z 22007KT 9999 BKN037 08/06 Q1012 SW (220°) 8.1mph 8°C 6°C
7/12/19 04:20 EGKK 070420Z 22008KT 9999 BKN038 08/06 Q1012 SW (220°) 9.2mph 8°C 6°C
7/12/19 03:50 EGKK 070350Z 22007KT 9999 BKN036 08/06 Q1012 SW (220°) 8.1mph 8°C 6°C
7/12/19 03:20 EGKK 070320Z 23008KT 9999 BKN037 08/06 Q1012 SW (230°) 9.2mph 8°C 6°C
7/12/19 02:50 EGKK 070250Z 22006KT 9999 BKN040 08/06 Q1012 SW (220°) 6.9mph 8°C 6°C
7/12/19 02:20 EGKK 070220Z 22007KT 9999 BKN040 08/06 Q1011 SW (220°) 8.1mph 8°C 6°C
7/12/19 01:20 EGKK 070120Z 22008KT CAVOK 08/06 Q1011 SW (220°) 9.2mph 8°C 6°C
7/12/19 00:50 EGKK 070050Z 22008KT CAVOK 08/06 Q1010 SW (220°) 9.2mph 8°C 6°C
7/12/19 00:20 EGKK 070020Z 23008KT CAVOK 08/06 Q1010 SW (230°) 9.2mph 8°C 6°C
6/12/19 23:50 EGKK 062350Z 24009KT 9999 FEW041 08/06 Q1010 WSW (240°) 10.4mph 8°C 6°C
6/12/19 23:20 EGKK 062320Z 24008KT CAVOK 08/06 Q1010 WSW (240°) 9.2mph 8°C 6°C
6/12/19 22:50 EGKK 062250Z 24009KT CAVOK 08/06 Q1009 WSW (240°) 10.4mph 8°C 6°C
6/12/19 21:50 EGKK 062150Z 24009KT 9999 FEW033 09/07 Q1008 WSW (240°) 10.4mph 9°C 7°C